createdAt,value
2022-09-01T00:02:04.021Z,101527.06
2022-09-01T00:05:44.564Z,101523.83
2022-09-01T00:09:31.426Z,101523.21
2022-09-01T00:13:21.852Z,101525.35
2022-09-01T00:17:09.497Z,101522.16
2022-09-01T00:20:57.784Z,101524.52
2022-09-01T00:24:46.414Z,101522.86
2022-09-01T00:28:34.082Z,101525.56
2022-09-01T00:32:22.181Z,101524.95
2022-09-01T00:36:10.680Z,101527.27
2022-09-01T00:39:58.658Z,101528.16
2022-09-01T00:43:52.491Z,101535.23
2022-09-01T00:47:44.924Z,101532.21
2022-09-01T00:51:32.970Z,101532.84
2022-09-01T00:55:20.714Z,101528.23
2022-09-01T00:59:08.135Z,101532.29
2022-09-01T01:02:55.957Z,101528.16
2022-09-01T01:06:36.941Z,101527.07
2022-09-01T01:10:24.672Z,101526.51
2022-09-01T01:14:12.604Z,101530.28
2022-09-01T01:18:00.003Z,101533.90
2022-09-01T01:21:45.835Z,101535.20
2022-09-01T01:25:33.382Z,101540.51
2022-09-01T01:29:20.438Z,101534.96
2022-09-01T01:33:08.470Z,101533.85
2022-09-01T01:36:54.795Z,101531.36
2022-09-01T01:40:43.050Z,101536.27
2022-09-01T01:44:31.192Z,101528.98
2022-09-01T01:48:18.742Z,101534.39
2022-09-01T01:52:08.214Z,101532.48
2022-09-01T01:55:44.751Z,101535.66
2022-09-01T01:59:32.244Z,101537.84
2022-09-01T02:03:19.914Z,101535.70
2022-09-01T02:07:09.526Z,101527.61
2022-09-01T02:10:57.308Z,101527.66
2022-09-01T02:14:45.263Z,101530.47
2022-09-01T02:18:33.034Z,101533.16
2022-09-01T02:22:20.642Z,101534.17
2022-09-01T02:26:16.864Z,101533.08
2022-09-01T02:30:04.876Z,101525.15
2022-09-01T02:33:52.638Z,101520.77
2022-09-01T02:37:44.061Z,101521.15
2022-09-01T02:41:31.945Z,101523.56
2022-09-01T02:45:20.011Z,101526.30
2022-09-01T02:49:08.057Z,101525.91
2022-09-01T02:52:55.620Z,101523.55
2022-09-01T02:56:43.536Z,101533.33
2022-09-01T03:00:31.309Z,101538.31
2022-09-01T03:04:19.076Z,101535.52
2022-09-01T03:08:07.865Z,101532.41
2022-09-01T03:11:55.479Z,101534.46
2022-09-01T03:15:43.119Z,101523.85
2022-09-01T03:19:30.743Z,101516.61
2022-09-01T03:23:19.415Z,101515.92
2022-09-01T03:27:07.566Z,101522.09
2022-09-01T03:30:55.255Z,101525.02
2022-09-01T03:34:43.013Z,101528.97
2022-09-01T03:38:32.728Z,101527.02
2022-09-01T03:42:20.054Z,101521.92
2022-09-01T03:46:07.954Z,101529.29
2022-09-01T03:49:47.783Z,101527.63
2022-09-01T03:53:15.398Z,101531.48
2022-09-01T03:57:03.538Z,101529.50
2022-09-01T04:00:51.563Z,101532.73
2022-09-01T04:04:20.338Z,101538.25
2022-09-01T04:08:07.896Z,101543.16
2022-09-01T04:11:58.576Z,101545.80
2022-09-01T04:15:46.572Z,101538.99
2022-09-01T04:19:40.566Z,101539.13
2022-09-01T04:23:31.326Z,101536.84
2022-09-01T04:27:18.891Z,101546.52
2022-09-01T04:31:07.258Z,101545.02
2022-09-01T04:34:58.631Z,101540.45
2022-09-01T04:38:46.404Z,101547.66
2022-09-01T04:42:35.153Z,101552.98
2022-09-01T04:46:24.856Z,101561.63
2022-09-01T04:50:13.144Z,101561.11
2022-09-01T04:54:03.807Z,101565.93
2022-09-01T04:57:52.106Z,101563.30
2022-09-01T05:01:39.949Z,101558.72
2022-09-01T05:05:27.652Z,101562.06
2022-09-01T05:09:15.009Z,101563.39
2022-09-01T05:13:06.504Z,101555.91
2022-09-01T05:16:57.166Z,101554.77
2022-09-01T05:20:42.709Z,101548.51
2022-09-01T05:24:23.191Z,101555.36
2022-09-01T05:28:11.168Z,101556.04
2022-09-01T05:31:58.864Z,101555.23
2022-09-01T05:35:46.564Z,101558.36
2022-09-01T05:39:34.343Z,101552.31
2022-09-01T05:43:21.874Z,101549.98
2022-09-01T05:47:10.260Z,101553.00
2022-09-01T05:51:22.381Z,101552.59
2022-09-01T05:55:15.451Z,101553.09
2022-09-01T06:03:08.276Z,101555.50
2022-09-01T06:07:06.973Z,101555.95
2022-09-01T06:10:55.732Z,101560.81
2022-09-01T06:14:43.188Z,101563.09
2022-09-01T06:18:30.767Z,101569.44
2022-09-01T06:22:18.435Z,101565.71
2022-09-01T06:26:07.753Z,101568.40
2022-09-01T06:30:00.939Z,101567.22
2022-09-01T06:33:48.466Z,101572.07
2022-09-01T06:37:39.590Z,101571.71
2022-09-01T06:41:28.185Z,101577.38
2022-09-01T06:45:15.970Z,101580.17
2022-09-01T06:49:06.897Z,101586.55
2022-09-01T06:58:03.554Z,101589.38
2022-09-01T07:01:11.381Z,101589.95
2022-09-01T07:05:02.336Z,101595.58
2022-09-01T07:13:05.546Z,101592.77
2022-09-01T07:17:23.142Z,101582.36
2022-09-01T07:21:36.320Z,101578.17
2022-09-01T07:25:14.432Z,101579.64
2022-09-01T07:29:11.318Z,101581.55
2022-09-01T07:33:41.690Z,101581.15
2022-09-01T07:38:47.114Z,101577.52
2022-09-01T07:45:29.145Z,101579.50
2022-09-01T07:49:51.340Z,101588.93
2022-09-01T07:53:28.395Z,101586.81
2022-09-01T07:57:16.491Z,101585.13
2022-09-01T08:01:05.286Z,101587.37
2022-09-01T08:04:56.653Z,101589.30
2022-09-01T08:08:45.352Z,101593.31
2022-09-01T08:12:34.534Z,101592.47
2022-09-01T08:16:24.124Z,101583.81
2022-09-01T08:20:14.207Z,101589.02
2022-09-01T08:24:14.501Z,101592.13
2022-09-01T08:28:04.129Z,101595.56
2022-09-01T08:31:52.949Z,101587.76
2022-09-01T08:35:40.997Z,101593.20
2022-09-01T08:39:28.976Z,101594.66
2022-09-01T08:43:32.770Z,101594.56
2022-09-01T08:47:28.721Z,101592.29
2022-09-01T08:51:20.587Z,101586.70
2022-09-01T08:55:49.458Z,101581.55
2022-09-01T08:59:37.217Z,101576.05
2022-09-01T09:03:52.900Z,101583.48
2022-09-01T09:07:53.802Z,101588.83
2022-09-01T09:11:54.088Z,101584.84
2022-09-01T09:15:42.255Z,101591.35
2022-09-01T09:19:33.269Z,101592.99
2022-09-01T09:23:21.622Z,101591.08
2022-09-01T09:27:11.100Z,101579.27
2022-09-01T09:31:04.477Z,101581.48
2022-09-01T09:35:07.818Z,101576.61
2022-09-01T09:38:56.131Z,101575.66
2022-09-01T09:42:44.434Z,101571.40
2022-09-01T09:46:33.458Z,101564.84
2022-09-01T09:50:24.175Z,101564.11
2022-09-01T09:54:14.868Z,101574.06
2022-09-01T09:58:05.925Z,101574.17
2022-09-01T10:02:00.524Z,101573.20
2022-09-01T10:06:08.622Z,101567.99
2022-09-01T10:09:56.582Z,101562.04
2022-09-01T10:13:44.677Z,101558.91
2022-09-01T10:17:34.288Z,101547.70
2022-09-01T10:21:26.626Z,101546.02
2022-09-01T10:25:17.434Z,101550.52
2022-09-01T10:29:06.101Z,101548.49
2022-09-01T10:33:01.493Z,101550.75
2022-09-01T10:36:58.994Z,101549.94
2022-09-01T10:40:52.445Z,101550.08
2022-09-01T10:49:27.803Z,101534.77
2022-09-01T10:53:17.308Z,101538.13
2022-09-01T10:57:12.275Z,101541.59
2022-09-01T11:01:21.579Z,101545.13
2022-09-01T11:05:10.763Z,101535.11
2022-09-01T11:09:08.512Z,101532.72
2022-09-01T11:13:18.340Z,101530.77
2022-09-01T11:17:18.338Z,101533.66
2022-09-01T11:21:07.975Z,101528.92
2022-09-01T11:25:00.212Z,101530.67
2022-09-01T11:29:08.454Z,101530.06
2022-09-01T11:32:56.208Z,101519.30
2022-09-01T11:36:44.454Z,101522.56
2022-09-01T11:40:47.574Z,101534.79
2022-09-01T11:44:35.794Z,101527.48
2022-09-01T11:48:26.827Z,101529.53
2022-09-01T11:52:23.522Z,101530.61
2022-09-01T11:56:11.861Z,101532.00
2022-09-01T12:00:12.076Z,101531.60
2022-09-01T12:04:01.136Z,101523.66
2022-09-01T12:07:54.857Z,101523.44
2022-09-01T12:11:43.148Z,101527.05
2022-09-01T12:15:43.411Z,101524.91
2022-09-01T12:19:46.436Z,101519.70
2022-09-01T12:23:36.796Z,101516.06
2022-09-01T12:27:24.546Z,101516.71
2022-09-01T12:31:12.772Z,101513.46
2022-09-01T12:35:13.080Z,101523.27
2022-09-01T12:39:18.959Z,101515.64
2022-09-01T12:43:07.892Z,101513.89
2022-09-01T12:46:56.881Z,101511.40
2022-09-01T12:50:45.817Z,101505.92
2022-09-01T12:54:33.904Z,101501.49
2022-09-01T12:58:35.400Z,101499.04
2022-09-01T13:02:26.988Z,101494.73
2022-09-01T13:06:21.272Z,101495.61
2022-09-01T13:10:10.043Z,101495.77
2022-09-01T13:13:58.481Z,101503.33
2022-09-01T13:17:46.839Z,101504.63
2022-09-01T13:21:35.238Z,101498.02
2022-09-01T13:25:23.194Z,101500.20
2022-09-01T13:29:19.353Z,101500.31
2022-09-01T13:33:23.474Z,101501.11
2022-09-01T13:37:20.051Z,101493.95
2022-09-01T13:41:08.417Z,101487.60
2022-09-01T13:44:57.029Z,101483.40
2022-09-01T13:52:55.378Z,101486.44
2022-09-01T13:56:43.888Z,101483.34
2022-09-01T14:00:34.806Z,101484.27
2022-09-01T14:04:23.324Z,101485.06
2022-09-01T14:08:12.292Z,101487.17
2022-09-01T14:12:17.223Z,101480.61
2022-09-01T14:16:06.439Z,101486.09
2022-09-01T14:19:59.086Z,101487.09
2022-09-01T14:23:49.568Z,101490.52
2022-09-01T14:27:39.395Z,101482.96
2022-09-01T14:31:30.982Z,101481.90
2022-09-01T14:35:18.897Z,101484.33
2022-09-01T14:39:11.382Z,101487.88
2022-09-01T14:47:19.254Z,101486.33
2022-09-01T14:55:29.672Z,101482.06
2022-09-01T14:59:20.330Z,101484.98
2022-09-01T15:03:10.357Z,101476.66
2022-09-01T15:06:58.265Z,101478.88
2022-09-01T15:10:51.893Z,101474.73
2022-09-01T15:14:39.844Z,101478.63
2022-09-01T15:18:29.163Z,101473.59
2022-09-01T15:22:19.824Z,101472.09
2022-09-01T15:26:19.664Z,101467.33
2022-09-01T15:30:07.511Z,101473.16
2022-09-01T15:33:55.885Z,101467.77
2022-09-01T15:37:46.211Z,101465.95
2022-09-01T15:41:36.554Z,101464.05
2022-09-01T15:45:25.685Z,101461.07
2022-09-01T15:49:13.564Z,101466.65
2022-09-01T15:53:01.410Z,101462.54
2022-09-01T15:56:49.379Z,101458.95
2022-09-01T16:00:37.808Z,101455.82
2022-09-01T16:04:33.663Z,101457.02
2022-09-01T16:08:21.864Z,101455.35
2022-09-01T16:12:09.956Z,101455.64
2022-09-01T16:15:57.915Z,101454.45
2022-09-01T16:19:54.171Z,101455.33
2022-09-01T16:23:45.059Z,101455.45
2022-09-01T16:27:33.526Z,101453.98
2022-09-01T16:31:21.714Z,101452.00
2022-09-01T16:39:26.763Z,101449.73
2022-09-01T16:43:32.932Z,101447.68
2022-09-01T16:47:20.927Z,101446.85
2022-09-01T16:51:10.480Z,101450.08
2022-09-01T16:55:07.065Z,101448.71
2022-09-01T16:59:07.081Z,101450.85
2022-09-01T17:03:06.829Z,101449.70
2022-09-01T17:06:54.887Z,101451.00
2022-09-01T17:10:43.485Z,101452.15
2022-09-01T17:14:41.034Z,101452.89
2022-09-01T17:18:52.425Z,101452.17
2022-09-01T17:22:43.759Z,101455.31
2022-09-01T17:26:36.654Z,101452.42
2022-09-01T17:30:27.584Z,101455.23
2022-09-01T17:34:18.167Z,101458.25
2022-09-01T17:38:05.991Z,101463.35
2022-09-01T17:41:50.847Z,101463.47
2022-09-01T17:45:38.963Z,101468.45
2022-09-01T17:49:37.712Z,101468.14
2022-09-01T17:53:31.926Z,101474.95
2022-09-01T17:57:33.448Z,101478.25
2022-09-01T18:01:20.489Z,101477.63
2022-09-01T18:05:09.110Z,101482.34
2022-09-01T18:09:21.412Z,101480.69
2022-09-01T18:13:10.409Z,101483.02
2022-09-01T18:17:00.239Z,101483.55
2022-09-01T18:20:52.498Z,101484.77
2022-09-01T18:25:00.126Z,101487.43
2022-09-01T18:28:49.375Z,101490.98
2022-09-01T18:32:49.303Z,101491.27
2022-09-01T18:36:49.252Z,101493.86
2022-09-01T18:40:42.988Z,101494.95
2022-09-01T18:44:43.101Z,101496.23
2022-09-01T18:48:31.447Z,101501.27
2022-09-01T18:52:21.457Z,101503.83
2022-09-01T18:56:37.576Z,101508.39
2022-09-01T19:00:33.067Z,101511.50
2022-09-01T19:04:29.069Z,101511.47
2022-09-01T19:08:20.544Z,101512.67
2022-09-01T19:12:25.774Z,101510.48
2022-09-01T19:16:24.774Z,101506.29
2022-09-01T19:20:28.628Z,101512.58
2022-09-01T19:24:28.943Z,101509.03
2022-09-01T19:28:18.186Z,101513.33
2022-09-01T19:32:09.313Z,101514.29
2022-09-01T19:35:58.030Z,101512.85
2022-09-01T19:39:49.775Z,101520.81
2022-09-01T19:43:43.720Z,101518.56
2022-09-01T19:47:36.686Z,101521.73
2022-09-01T19:51:24.706Z,101520.51
2022-09-01T19:55:13.739Z,101523.52
2022-09-01T19:59:08.060Z,101524.55
2022-09-01T20:02:56.632Z,101526.42
2022-09-01T20:06:54.321Z,101526.45
2022-09-01T20:10:55.267Z,101522.54
2022-09-01T20:14:46.510Z,101521.20
2022-09-01T20:18:37.827Z,101517.98
2022-09-01T20:22:30.635Z,101520.16
2022-09-01T20:26:26.684Z,101521.88
2022-09-01T20:30:30.809Z,101529.00
2022-09-01T20:34:19.382Z,101528.55
2022-09-01T20:38:18.952Z,101532.30
2022-09-01T20:42:09.580Z,101533.54
2022-09-01T20:46:00.719Z,101536.77
2022-09-01T20:49:49.537Z,101538.86
2022-09-01T20:54:08.814Z,101546.66
2022-09-01T20:58:24.546Z,101551.41
2022-09-01T21:02:17.448Z,101553.23
2022-09-01T21:06:05.390Z,101551.59
2022-09-01T21:09:55.611Z,101553.67
2022-09-01T21:13:43.418Z,101554.15
2022-09-01T21:17:43.555Z,101554.29
2022-09-01T21:21:40.297Z,101553.11
2022-09-01T21:25:27.833Z,101557.69
2022-09-01T21:29:15.693Z,101562.48
2022-09-01T21:33:03.567Z,101563.25
2022-09-01T21:36:51.585Z,101570.66
2022-09-01T21:40:43.622Z,101570.84
2022-09-01T21:44:34.485Z,101576.78
2022-09-01T21:48:22.506Z,101576.60
2022-09-01T21:52:10.164Z,101573.65
2022-09-01T21:55:57.836Z,101574.17
2022-09-01T21:59:45.585Z,101574.55
2022-09-01T22:03:33.312Z,101576.97
2022-09-01T22:07:20.987Z,101578.99
2022-09-01T22:11:08.842Z,101580.83
2022-09-01T22:14:56.489Z,101582.66
2022-09-01T22:18:44.996Z,101584.95
2022-09-01T22:22:32.620Z,101579.23
2022-09-01T22:26:20.203Z,101579.31
2022-09-01T22:30:08.030Z,101577.13
2022-09-01T22:33:56.139Z,101580.34
2022-09-01T22:37:43.932Z,101578.41
2022-09-01T22:41:32.036Z,101578.45
2022-09-01T22:45:19.589Z,101571.07
2022-09-01T22:49:07.353Z,101575.91
2022-09-01T22:52:55.351Z,101575.81
2022-09-01T22:56:43.214Z,101576.90
2022-09-01T23:00:30.811Z,101578.44
2022-09-01T23:04:18.675Z,101575.09
2022-09-01T23:08:06.422Z,101573.10
2022-09-01T23:11:54.060Z,101575.38
2022-09-01T23:15:41.536Z,101572.11
2022-09-01T23:19:28.968Z,101572.88
2022-09-01T23:23:16.749Z,101576.30
2022-09-01T23:27:04.408Z,101575.00
2022-09-01T23:30:52.345Z,101576.21
2022-09-01T23:34:40.379Z,101574.98
2022-09-01T23:38:28.264Z,101573.16
2022-09-01T23:42:15.531Z,101567.36
2022-09-01T23:46:03.262Z,101567.02
2022-09-01T23:49:52.618Z,101564.61
2022-09-01T23:53:41.121Z,101565.58
2022-09-01T23:57:29.065Z,101557.45
